createdAt,value
2019-01-20T00:00:42.549Z,0
2019-01-20T00:01:43.214Z,0
2019-01-20T00:02:43.902Z,0
2019-01-20T00:03:44.590Z,0
2019-01-20T00:04:45.302Z,0
2019-01-20T00:05:45.967Z,0
2019-01-20T00:06:46.634Z,0
2019-01-20T00:07:47.297Z,0
2019-01-20T00:08:47.960Z,0
2019-01-20T00:09:48.626Z,0
2019-01-20T00:10:49.289Z,0
2019-01-20T00:11:49.954Z,0
2019-01-20T00:12:50.617Z,0
2019-01-20T00:13:51.283Z,0
2019-01-20T00:14:51.946Z,0
2019-01-20T00:15:52.609Z,0
2019-01-20T00:16:53.273Z,0
2019-01-20T00:17:53.937Z,0
2019-01-20T00:18:54.602Z,0
2019-01-20T00:19:55.269Z,0
2019-01-20T00:20:55.931Z,0
2019-01-20T00:21:56.593Z,0
2019-01-20T00:22:57.258Z,0
2019-01-20T00:23:57.921Z,0
2019-01-20T00:24:58.594Z,0
2019-01-20T00:25:59.250Z,0
2019-01-20T00:26:59.915Z,0
2019-01-20T00:28:00.581Z,0
2019-01-20T00:29:01.244Z,0
2019-01-20T00:30:01.909Z,0
2019-01-20T00:31:02.573Z,0
2019-01-20T00:32:03.239Z,0
2019-01-20T00:33:03.902Z,0
2019-01-20T00:34:04.564Z,0
2019-01-20T00:35:05.228Z,0
2019-01-20T00:36:05.896Z,0
2019-01-20T00:37:06.605Z,0
2019-01-20T00:38:07.272Z,0
2019-01-20T00:39:07.936Z,0
2019-01-20T00:40:08.601Z,0
2019-01-20T00:41:09.264Z,0
2019-01-20T00:42:09.928Z,0
2019-01-20T00:43:10.594Z,0
2019-01-20T00:44:11.258Z,0
2019-01-20T00:45:11.924Z,0
2019-01-20T00:46:12.587Z,0
2019-01-20T00:47:13.250Z,0
2019-01-20T00:48:13.915Z,0
2019-01-20T00:49:14.578Z,0
2019-01-20T00:50:15.242Z,0
2019-01-20T00:51:15.908Z,0
2019-01-20T00:52:16.572Z,0
2019-01-20T00:53:17.237Z,0
2019-01-20T00:54:17.903Z,0
2019-01-20T00:55:18.562Z,0
2019-01-20T00:56:19.235Z,0
2019-01-20T00:57:19.892Z,0
2019-01-20T00:58:20.555Z,0
2019-01-20T00:59:21.220Z,0
2019-01-20T01:00:21.884Z,0
2019-01-20T01:01:22.550Z,0
2019-01-20T01:02:23.262Z,0
2019-01-20T01:03:23.925Z,0
2019-01-20T01:04:24.592Z,0
2019-01-20T01:05:25.254Z,0
2019-01-20T01:06:25.919Z,0
2019-01-20T01:07:26.584Z,0
2019-01-20T01:08:27.297Z,0
2019-01-20T01:09:27.960Z,0
2019-01-20T01:10:28.625Z,0
2019-01-20T01:11:31.690Z,0
2019-01-20T01:12:29.995Z,0
2019-01-20T01:13:30.670Z,0
2019-01-20T01:14:31.372Z,0
2019-01-20T01:15:32.040Z,0
2019-01-20T01:16:32.703Z,0
2019-01-20T01:17:33.364Z,0
2019-01-20T01:18:34.030Z,0
2019-01-20T01:19:34.694Z,0
2019-01-20T01:20:35.357Z,0
2019-01-20T01:21:36.022Z,0
2019-01-20T01:22:36.687Z,0
2019-01-20T01:23:37.401Z,0
2019-01-20T01:24:38.020Z,0
2019-01-20T01:25:38.686Z,0
2019-01-20T01:26:39.354Z,0
2019-01-20T01:27:40.014Z,0
2019-01-20T01:28:40.677Z,0
2019-01-20T01:29:41.341Z,0
2019-01-20T01:30:42.009Z,0
2019-01-20T01:31:42.670Z,0
2019-01-20T01:32:43.336Z,0
2019-01-20T01:33:44.001Z,0
2019-01-20T01:34:44.665Z,0
2019-01-20T01:35:45.332Z,0
2019-01-20T01:36:45.992Z,0
2019-01-20T01:37:46.657Z,0
2019-01-20T01:38:47.371Z,0
2019-01-20T01:39:48.034Z,0
2019-01-20T01:40:48.699Z,0
2019-01-20T01:41:49.363Z,0
2019-01-20T01:42:50.029Z,0
2019-01-20T01:43:50.691Z,0
2019-01-20T01:44:51.358Z,0
2019-01-20T01:45:52.019Z,0
2019-01-20T01:46:52.688Z,0
2019-01-20T01:47:53.398Z,0
2019-01-20T01:48:54.062Z,0
2019-01-20T01:49:54.726Z,0
2019-01-20T01:50:55.390Z,0
2019-01-20T01:51:56.054Z,0
2019-01-20T01:52:56.767Z,0
2019-01-20T01:53:57.436Z,0
2019-01-20T01:54:58.098Z,0
2019-01-20T01:55:58.760Z,0
2019-01-20T01:56:59.424Z,0
2019-01-20T01:58:00.088Z,0
2019-01-20T01:59:00.752Z,0
2019-01-20T02:00:01.418Z,0
2019-01-20T02:01:02.083Z,0
2019-01-20T02:02:02.753Z,0
2019-01-20T02:03:03.415Z,0
2019-01-20T02:04:04.075Z,0
2019-01-20T02:05:04.738Z,0
2019-01-20T02:06:05.402Z,0
2019-01-20T02:07:06.067Z,0
2019-01-20T02:08:06.733Z,0
2019-01-20T02:09:07.444Z,0
2019-01-20T02:10:08.120Z,0
2019-01-20T02:11:08.785Z,0
2019-01-20T02:12:09.498Z,0
2019-01-20T02:13:10.163Z,0
2019-01-20T02:14:10.826Z,0
2019-01-20T02:15:11.492Z,0
2019-01-20T02:16:12.156Z,0
2019-01-20T02:17:12.820Z,0
2019-01-20T02:18:13.483Z,0
2019-01-20T02:19:14.149Z,0
2019-01-20T02:20:14.814Z,0
2019-01-20T02:21:15.529Z,0
2019-01-20T02:22:16.191Z,0
2019-01-20T02:23:16.856Z,0
2019-01-20T02:24:17.519Z,0
2019-01-20T02:25:18.185Z,0
2019-01-20T02:26:18.849Z,0
2019-01-20T02:27:19.511Z,0
2019-01-20T02:28:20.174Z,0
2019-01-20T02:29:20.840Z,0
2019-01-20T02:30:21.504Z,0
2019-01-20T02:31:22.167Z,0
2019-01-20T02:32:22.833Z,0
2019-01-20T02:33:23.495Z,0
2019-01-20T02:34:24.210Z,0
2019-01-20T02:35:24.923Z,0
2019-01-20T02:36:25.590Z,0
2019-01-20T02:37:26.252Z,0
2019-01-20T02:38:26.918Z,0
2019-01-20T02:39:27.581Z,0
2019-01-20T02:40:28.329Z,0
2019-01-20T02:41:29.002Z,0
2019-01-20T02:42:29.666Z,0
2019-01-20T02:43:30.331Z,0
2019-01-20T02:44:30.992Z,0
2019-01-20T02:45:31.658Z,0
2019-01-20T02:46:32.321Z,0
2019-01-20T02:47:32.985Z,0
2019-01-20T02:48:33.650Z,0
2019-01-20T02:49:34.314Z,0
2019-01-20T02:50:34.977Z,0
2019-01-20T02:51:35.641Z,0
2019-01-20T02:52:36.307Z,0
2019-01-20T02:53:36.971Z,0
2019-01-20T02:54:37.635Z,0
2019-01-20T02:55:38.299Z,0
2019-01-20T02:56:38.965Z,0
2019-01-20T02:57:39.648Z,0
2019-01-20T02:58:40.292Z,0
2019-01-20T02:59:41.005Z,0
2019-01-20T03:00:41.672Z,0
2019-01-20T03:01:42.333Z,0
2019-01-20T03:02:42.998Z,0
2019-01-20T03:03:43.664Z,0
2019-01-20T03:04:44.376Z,0
2019-01-20T03:05:45.040Z,0
2019-01-20T03:06:45.706Z,0
2019-01-20T03:08:32.515Z,0
2019-01-20T03:09:33.187Z,0
2019-01-20T03:10:33.845Z,0
2019-01-20T03:11:34.510Z,0
2019-01-20T03:12:35.179Z,0
2019-01-20T03:13:35.839Z,0
2019-01-20T03:14:36.503Z,0
2019-01-20T03:15:37.166Z,0
2019-01-20T03:16:37.830Z,0
2019-01-20T03:17:38.497Z,0
2019-01-20T03:18:39.160Z,0
2019-01-20T03:19:39.827Z,0
2019-01-20T03:20:40.489Z,0
2019-01-20T03:21:41.160Z,0
2019-01-20T03:22:41.816Z,0
2019-01-20T03:23:42.482Z,0
2019-01-20T03:24:43.148Z,0
2019-01-20T03:25:43.861Z,0
2019-01-20T03:26:44.525Z,0
2019-01-20T03:27:45.189Z,0
2019-01-20T03:28:45.853Z,0
2019-01-20T03:29:46.517Z,0
2019-01-20T03:30:47.194Z,0
2019-01-20T03:31:47.849Z,0
2019-01-20T03:32:48.567Z,0
2019-01-20T03:33:49.223Z,0
2019-01-20T03:34:49.887Z,0
2019-01-20T03:35:50.551Z,0
2019-01-20T03:36:51.213Z,0
2019-01-20T03:37:51.880Z,0
2019-01-20T03:38:52.592Z,0
2019-01-20T03:39:53.255Z,0
2019-01-20T03:40:53.919Z,0
2019-01-20T03:41:54.585Z,0
2019-01-20T03:42:55.252Z,0
2019-01-20T03:43:55.911Z,0
2019-01-20T03:44:56.575Z,0
2019-01-20T03:45:57.242Z,0
2019-01-20T03:46:57.902Z,0
2019-01-20T03:47:58.567Z,0
2019-01-20T03:48:59.233Z,0
2019-01-20T03:49:59.895Z,0
2019-01-20T03:51:00.562Z,0
2019-01-20T03:52:01.223Z,0
2019-01-20T03:53:01.889Z,0
2019-01-20T03:54:02.551Z,0
2019-01-20T03:55:03.218Z,0
2019-01-20T03:56:03.879Z,0
2019-01-20T03:57:04.551Z,0
2019-01-20T03:58:05.208Z,0
2019-01-20T03:59:05.871Z,0
2019-01-20T04:00:06.534Z,0
2019-01-20T04:01:07.197Z,0
2019-01-20T04:02:07.863Z,0
2019-01-20T04:03:08.529Z,0
2019-01-20T04:04:09.191Z,0
2019-01-20T04:05:09.857Z,0
2019-01-20T04:06:10.519Z,0
2019-01-20T04:07:11.184Z,0
2019-01-20T04:08:11.847Z,0
2019-01-20T04:09:12.512Z,0
2019-01-20T04:10:13.188Z,0
2019-01-20T04:11:13.840Z,0
2019-01-20T04:12:20.452Z,0
2019-01-20T04:13:16.159Z,0
2019-01-20T04:14:16.822Z,0
2019-01-20T04:15:17.487Z,0
2019-01-20T04:16:18.150Z,0
2019-01-20T04:17:18.814Z,0
2019-01-20T04:18:19.477Z,0
2019-01-20T04:19:20.141Z,0
2019-01-20T04:20:20.806Z,0
2019-01-20T04:21:21.469Z,0
2019-01-20T04:22:22.134Z,0
2019-01-20T04:23:22.798Z,0
2019-01-20T04:24:23.461Z,0
2019-01-20T04:25:24.126Z,0
2019-01-20T04:26:24.788Z,0
2019-01-20T04:27:25.455Z,0
2019-01-20T04:28:26.117Z,0
2019-01-20T04:29:26.783Z,0
2019-01-20T04:30:27.447Z,0
2019-01-20T04:31:28.108Z,0
2019-01-20T04:32:28.772Z,0
2019-01-20T04:33:29.433Z,0
2019-01-20T04:34:30.097Z,0
2019-01-20T04:35:30.761Z,0
2019-01-20T04:36:31.425Z,0
2019-01-20T04:37:32.087Z,0
2019-01-20T04:38:32.752Z,0
2019-01-20T04:39:33.468Z,0
2019-01-20T04:40:34.129Z,0
2019-01-20T04:41:34.799Z,0
2019-01-20T04:42:35.504Z,0
2019-01-20T04:43:36.167Z,0
2019-01-20T04:44:36.833Z,0
2019-01-20T04:45:37.494Z,0
2019-01-20T04:46:38.206Z,0
2019-01-20T04:47:38.872Z,0
2019-01-20T04:48:39.533Z,0
2019-01-20T04:49:40.198Z,0
2019-01-20T04:50:40.862Z,0
2019-01-20T04:51:41.533Z,0
2019-01-20T04:52:42.190Z,0
2019-01-20T04:53:42.853Z,0
2019-01-20T04:54:43.522Z,0
2019-01-20T04:55:44.181Z,0
2019-01-20T04:56:44.847Z,0
2019-01-20T04:57:45.510Z,0
2019-01-20T04:58:46.175Z,0
2019-01-20T04:59:46.838Z,0
2019-01-20T05:00:47.499Z,0
2019-01-20T05:01:48.164Z,0
2019-01-20T05:02:48.827Z,0
2019-01-20T05:03:49.492Z,0
2019-01-20T05:04:50.158Z,0
2019-01-20T05:05:50.823Z,0
2019-01-20T05:06:51.486Z,0
2019-01-20T05:07:52.149Z,0
2019-01-20T05:08:52.812Z,0
2019-01-20T05:09:53.475Z,0
2019-01-20T05:10:54.140Z,0
2019-01-20T05:11:54.804Z,0
2019-01-20T05:12:55.467Z,0
2019-01-20T05:13:56.132Z,0
2019-01-20T05:14:56.794Z,0
2019-01-20T05:15:57.458Z,0
2019-01-20T05:16:58.120Z,0
2019-01-20T05:17:58.787Z,0
2019-01-20T05:18:59.449Z,0
2019-01-20T05:20:00.277Z,0
2019-01-20T05:21:00.896Z,0
2019-01-20T05:22:01.560Z,0
2019-01-20T05:23:02.273Z,0
2019-01-20T05:24:02.936Z,0
2019-01-20T05:25:03.604Z,0
2019-01-20T05:26:04.264Z,0
2019-01-20T05:27:04.928Z,0
2019-01-20T05:28:05.592Z,0
2019-01-20T05:29:06.263Z,0
2019-01-20T05:30:06.920Z,0
2019-01-20T05:31:07.582Z,0
2019-01-20T05:32:08.247Z,0
2019-01-20T05:33:08.909Z,0
2019-01-20T05:34:09.575Z,0
2019-01-20T05:35:10.239Z,0
2019-01-20T05:36:10.898Z,0
2019-01-20T05:37:11.561Z,0
2019-01-20T05:38:12.227Z,0
2019-01-20T05:39:12.897Z,0
2019-01-20T05:40:13.561Z,0
2019-01-20T05:41:14.267Z,0
2019-01-20T05:42:14.932Z,0
2019-01-20T05:43:15.595Z,0
2019-01-20T05:44:16.258Z,0
2019-01-20T05:45:16.922Z,0
2019-01-20T05:46:17.583Z,0
2019-01-20T05:47:18.247Z,0
2019-01-20T05:48:18.910Z,0
2019-01-20T05:49:19.574Z,0
2019-01-20T05:50:20.304Z,0
2019-01-20T05:51:20.992Z,0
2019-01-20T05:52:21.656Z,0
2019-01-20T05:53:22.319Z,0
2019-01-20T05:54:22.981Z,0
2019-01-20T05:55:23.644Z,0
2019-01-20T05:56:24.309Z,0
2019-01-20T05:57:24.976Z,0
2019-01-20T05:58:25.635Z,0
2019-01-20T05:59:26.299Z,0
2019-01-20T06:00:26.963Z,0
2019-01-20T06:01:27.626Z,0
2019-01-20T06:02:28.288Z,0
2019-01-20T06:03:28.953Z,0
2019-01-20T06:04:29.616Z,0
2019-01-20T06:05:30.283Z,0
2019-01-20T06:06:30.991Z,0
2019-01-20T06:07:31.662Z,0
2019-01-20T06:08:32.319Z,0
2019-01-20T06:09:32.980Z,0
2019-01-20T06:10:33.644Z,0
2019-01-20T06:11:34.307Z,0
2019-01-20T06:12:34.976Z,0
2019-01-20T06:13:35.636Z,0
2019-01-20T06:14:36.299Z,0
2019-01-20T06:15:36.962Z,0
2019-01-20T06:16:37.625Z,0
2019-01-20T06:17:38.293Z,0
2019-01-20T06:18:39.001Z,0
2019-01-20T06:19:39.665Z,0
2019-01-20T06:20:40.329Z,0
2019-01-20T06:21:40.993Z,0
2019-01-20T06:22:41.658Z,0
2019-01-20T06:23:42.320Z,0
2019-01-20T06:24:42.982Z,0
2019-01-20T06:25:43.645Z,0
2019-01-20T06:26:44.308Z,0
2019-01-20T06:27:45.019Z,0
2019-01-20T06:28:45.683Z,0
2019-01-20T06:29:46.346Z,0
2019-01-20T06:30:47.009Z,0
2019-01-20T06:31:47.675Z,0
2019-01-20T06:32:48.338Z,0
2019-01-20T06:33:49.000Z,0
2019-01-20T06:34:49.665Z,0
2019-01-20T06:35:50.327Z,0
2019-01-20T06:36:50.989Z,0
2019-01-20T06:37:51.654Z,0
2019-01-20T06:38:52.317Z,0
2019-01-20T06:39:52.979Z,0
2019-01-20T06:40:53.642Z,0
2019-01-20T06:41:54.306Z,0
2019-01-20T06:43:01.781Z,0
2019-01-20T06:43:56.625Z,0
2019-01-20T06:44:57.288Z,0
2019-01-20T06:45:57.950Z,0
2019-01-20T06:46:58.613Z,0
2019-01-20T06:47:59.277Z,0
2019-01-20T06:48:59.942Z,0
2019-01-20T06:50:00.606Z,0
2019-01-20T06:51:01.273Z,0
2019-01-20T06:52:01.940Z,0
2019-01-20T06:53:02.602Z,0
2019-01-20T06:54:03.269Z,0
2019-01-20T06:55:03.932Z,0
2019-01-20T06:56:04.596Z,0
2019-01-20T06:57:05.261Z,0
2019-01-20T06:58:05.925Z,0
2019-01-20T06:59:06.588Z,0
2019-01-20T07:00:07.252Z,0
2019-01-20T07:01:07.915Z,0
2019-01-20T07:02:08.580Z,0
2019-01-20T07:03:09.244Z,0
2019-01-20T07:04:09.911Z,0
2019-01-20T07:05:10.576Z,0
2019-01-20T07:06:11.241Z,0
2019-01-20T07:07:11.907Z,0
2019-01-20T07:08:12.574Z,0
2019-01-20T07:09:13.243Z,0
2019-01-20T07:10:13.904Z,5
2019-01-20T07:11:14.568Z,5
2019-01-20T07:12:15.233Z,5
2019-01-20T07:13:15.902Z,5
2019-01-20T07:14:16.565Z,5
2019-01-20T07:15:17.229Z,5
2019-01-20T07:16:17.895Z,5
2019-01-20T07:17:18.560Z,5
2019-01-20T07:18:19.225Z,5
2019-01-20T07:19:19.897Z,5
2019-01-20T07:20:20.556Z,5
2019-01-20T07:21:21.221Z,11
2019-01-20T07:22:21.889Z,11
2019-01-20T07:23:22.616Z,11
2019-01-20T07:24:23.232Z,11
2019-01-20T07:25:23.896Z,11
2019-01-20T07:26:24.612Z,11
2019-01-20T07:27:25.277Z,11
2019-01-20T07:28:25.942Z,11
2019-01-20T07:29:26.610Z,11
2019-01-20T07:30:27.276Z,11
2019-01-20T07:31:27.941Z,16
2019-01-20T07:32:28.610Z,16
2019-01-20T07:33:29.275Z,16
2019-01-20T07:34:29.941Z,16
2019-01-20T07:35:30.655Z,16
2019-01-20T07:36:31.323Z,16
2019-01-20T07:37:32.038Z,16
2019-01-20T07:38:32.703Z,16
2019-01-20T07:39:33.371Z,16
2019-01-20T07:40:34.037Z,22
2019-01-20T07:41:34.702Z,22
2019-01-20T07:42:35.369Z,22
2019-01-20T07:43:36.041Z,22
2019-01-20T07:44:36.701Z,22
2019-01-20T07:45:37.368Z,22
2019-01-20T07:46:38.036Z,22
2019-01-20T07:47:38.701Z,22
2019-01-20T07:48:39.367Z,22
2019-01-20T07:49:40.036Z,22
2019-01-20T07:50:40.704Z,28
2019-01-20T07:51:41.367Z,28
2019-01-20T07:52:42.033Z,28
2019-01-20T07:53:42.701Z,28
2019-01-20T07:54:43.370Z,28
2019-01-20T07:55:44.038Z,28
2019-01-20T07:56:44.704Z,28
2019-01-20T07:57:45.373Z,28
2019-01-20T07:58:46.043Z,28
2019-01-20T07:59:46.710Z,28
2019-01-20T08:00:47.378Z,28
2019-01-20T08:01:48.044Z,33
2019-01-20T08:02:48.712Z,33
2019-01-20T08:03:49.379Z,33
2019-01-20T08:04:50.047Z,33
2019-01-20T08:05:50.713Z,33
2019-01-20T08:06:51.382Z,33
2019-01-20T08:07:52.050Z,33
2019-01-20T08:08:52.717Z,33
2019-01-20T08:09:53.387Z,33
2019-01-20T08:10:54.052Z,33
2019-01-20T08:11:54.721Z,33
2019-01-20T08:12:55.389Z,33
2019-01-20T08:13:56.056Z,39
2019-01-20T08:14:56.724Z,39
2019-01-20T08:15:57.392Z,39
2019-01-20T08:16:58.062Z,39
2019-01-20T08:17:58.731Z,39
2019-01-20T08:18:59.406Z,39
2019-01-20T08:20:00.172Z,39
2019-01-20T08:21:00.789Z,39
2019-01-20T08:22:01.456Z,39
2019-01-20T08:23:03.250Z,39
2019-01-20T08:24:03.782Z,39
2019-01-20T08:25:04.451Z,39
2019-01-20T08:26:05.168Z,39
2019-01-20T08:27:05.836Z,39
2019-01-20T08:28:06.506Z,39
2019-01-20T08:29:07.172Z,45
2019-01-20T08:30:07.840Z,45
2019-01-20T08:31:08.508Z,45
2019-01-20T08:32:09.177Z,45
2019-01-20T08:33:09.846Z,45
2019-01-20T08:34:10.511Z,45
2019-01-20T08:35:11.179Z,45
2019-01-20T08:36:11.848Z,45
2019-01-20T08:37:12.515Z,45
2019-01-20T08:38:13.182Z,45
2019-01-20T08:39:13.851Z,45
2019-01-20T08:40:14.524Z,45
2019-01-20T08:41:15.189Z,45
2019-01-20T08:42:15.859Z,45
2019-01-20T08:43:16.526Z,45
2019-01-20T08:44:17.194Z,45
2019-01-20T08:45:17.864Z,45
2019-01-20T08:46:18.532Z,50
2019-01-20T08:47:19.199Z,50
2019-01-20T08:48:19.867Z,50
2019-01-20T08:49:20.535Z,50
2019-01-20T08:50:21.206Z,50
2019-01-20T08:51:21.873Z,50
2019-01-20T08:52:22.539Z,50
2019-01-20T08:53:23.205Z,50
2019-01-20T08:54:23.875Z,50
2019-01-20T08:55:24.544Z,50
2019-01-20T08:56:25.212Z,50
2019-01-20T08:57:25.882Z,50
2019-01-20T08:58:26.551Z,50
2019-01-20T08:59:27.272Z,50
2019-01-20T09:00:27.938Z,50
2019-01-20T09:01:28.606Z,50
2019-01-20T09:02:29.275Z,50
2019-01-20T09:03:29.943Z,56
2019-01-20T09:04:30.613Z,56
2019-01-20T09:05:31.282Z,56
2019-01-20T09:06:31.951Z,56
2019-01-20T09:07:32.618Z,56
2019-01-20T09:08:33.287Z,56
2019-01-20T09:09:33.957Z,56
2019-01-20T09:10:34.625Z,56
2019-01-20T09:11:35.294Z,56
2019-01-20T09:12:35.964Z,56
2019-01-20T09:13:39.860Z,56
2019-01-20T09:14:38.290Z,56
2019-01-20T09:15:39.028Z,56
2019-01-20T09:16:39.650Z,56
2019-01-20T09:17:40.315Z,56
2019-01-20T09:18:40.983Z,56
2019-01-20T09:19:41.651Z,56
2019-01-20T09:20:42.320Z,56
2019-01-20T09:21:42.993Z,61
2019-01-20T09:22:43.659Z,61
2019-01-20T09:23:44.329Z,61
2019-01-20T09:24:45.000Z,61
2019-01-20T09:25:45.669Z,61
2019-01-20T09:26:46.338Z,61
2019-01-20T09:27:47.008Z,61
2019-01-20T09:28:47.677Z,61
2019-01-20T09:29:48.346Z,61
2019-01-20T09:30:49.017Z,61
2019-01-20T09:31:49.685Z,61
2019-01-20T09:32:50.353Z,61
2019-01-20T09:33:51.023Z,61
2019-01-20T09:34:51.693Z,61
2019-01-20T09:35:52.363Z,61
2019-01-20T09:36:53.071Z,61
2019-01-20T09:37:53.692Z,61
2019-01-20T09:38:54.360Z,61
2019-01-20T09:39:55.031Z,61
2019-01-20T09:40:55.746Z,67
2019-01-20T09:41:56.415Z,67
2019-01-20T09:42:57.089Z,67
2019-01-20T09:43:57.759Z,67
2019-01-20T09:44:58.425Z,67
2019-01-20T09:45:59.092Z,67
2019-01-20T09:46:59.764Z,67
2019-01-20T09:48:00.433Z,67
2019-01-20T09:49:01.103Z,67
2019-01-20T09:50:01.772Z,67
2019-01-20T09:51:02.441Z,67
2019-01-20T09:52:03.112Z,67
2019-01-20T09:53:03.781Z,67
2019-01-20T09:54:04.450Z,67
2019-01-20T09:55:05.118Z,67
2019-01-20T09:56:05.787Z,67
2019-01-20T09:57:06.457Z,67
2019-01-20T09:58:07.126Z,67
2019-01-20T09:59:07.795Z,67
2019-01-20T10:00:08.467Z,73
2019-01-20T10:01:09.136Z,73
2019-01-20T10:02:09.809Z,73
2019-01-20T10:03:16.211Z,73
2019-01-20T10:04:11.190Z,73
2019-01-20T10:05:11.860Z,73
2019-01-20T10:06:12.530Z,73
2019-01-20T10:07:13.201Z,73
2019-01-20T10:08:13.869Z,73
2019-01-20T10:09:14.538Z,73
2019-01-20T10:10:15.208Z,73
2019-01-20T10:11:15.878Z,73
2019-01-20T10:12:16.548Z,73
2019-01-20T10:13:17.218Z,78
2019-01-20T10:14:17.887Z,78
2019-01-20T10:15:18.557Z,78
2019-01-20T10:16:19.228Z,78
2019-01-20T10:17:19.896Z,78
2019-01-20T10:18:20.567Z,78
2019-01-20T10:19:21.237Z,78
2019-01-20T10:20:21.908Z,78
2019-01-20T10:21:22.579Z,78
2019-01-20T10:22:23.248Z,78
2019-01-20T10:23:23.919Z,78
2019-01-20T10:24:24.591Z,78
2019-01-20T10:25:25.258Z,78
2019-01-20T10:26:25.928Z,78
2019-01-20T10:27:26.597Z,73
2019-01-20T10:28:27.268Z,73
2019-01-20T10:29:27.942Z,73
2019-01-20T10:30:28.609Z,73
2019-01-20T10:31:29.279Z,73
2019-01-20T10:32:29.948Z,73
2019-01-20T10:33:30.622Z,78
2019-01-20T10:34:31.293Z,78
2019-01-20T10:35:31.962Z,78
2019-01-20T10:36:33.239Z,78
2019-01-20T10:37:33.880Z,78
2019-01-20T10:38:37.307Z,78
2019-01-20T10:39:36.213Z,78
2019-01-20T10:40:36.885Z,78
2019-01-20T10:41:37.556Z,78
2019-01-20T10:42:38.226Z,78
2019-01-20T10:43:38.899Z,78
2019-01-20T10:44:39.619Z,78
2019-01-20T10:45:40.287Z,78
2019-01-20T10:46:40.958Z,78
2019-01-20T10:47:41.629Z,78
2019-01-20T10:48:42.301Z,78
2019-01-20T10:49:42.970Z,78
2019-01-20T10:50:43.641Z,78
2019-01-20T10:51:44.311Z,78
2019-01-20T10:52:44.982Z,78
2019-01-20T10:53:45.653Z,78
2019-01-20T10:54:46.323Z,78
2019-01-20T10:55:46.993Z,78
2019-01-20T10:56:47.665Z,78
2019-01-20T10:57:48.335Z,78
2019-01-20T10:58:49.006Z,78
2019-01-20T10:59:49.677Z,78
2019-01-20T11:00:50.348Z,84
2019-01-20T11:01:51.021Z,84
2019-01-20T11:02:51.695Z,84
2019-01-20T11:03:52.408Z,84
2019-01-20T11:04:57.538Z,84
2019-01-20T11:05:54.694Z,84
2019-01-20T11:06:55.367Z,84
2019-01-20T11:07:56.038Z,84
2019-01-20T11:08:56.709Z,84
2019-01-20T11:09:57.380Z,84
2019-01-20T11:10:58.051Z,84
2019-01-20T11:11:58.726Z,84
2019-01-20T11:12:59.391Z,84
2019-01-20T11:14:00.062Z,84
2019-01-20T11:15:00.732Z,84
2019-01-20T11:16:01.405Z,84
2019-01-20T11:17:02.125Z,84
2019-01-20T11:18:02.846Z,84
2019-01-20T11:19:03.521Z,84
2019-01-20T11:20:04.191Z,84
2019-01-20T11:21:04.864Z,84
2019-01-20T11:22:05.533Z,84
2019-01-20T11:23:06.204Z,84
2019-01-20T11:24:06.875Z,84
2019-01-20T11:25:07.547Z,84
2019-01-20T11:26:08.217Z,84
2019-01-20T11:27:08.887Z,84
2019-01-20T11:28:09.558Z,84
2019-01-20T11:29:10.251Z,84
2019-01-20T11:30:10.900Z,84
2019-01-20T11:31:11.570Z,84
2019-01-20T11:32:12.243Z,84
2019-01-20T11:33:12.963Z,84
2019-01-20T11:34:13.636Z,84
2019-01-20T11:35:14.309Z,84
2019-01-20T11:36:14.978Z,84
2019-01-20T11:37:15.647Z,84
2019-01-20T11:38:16.317Z,84
2019-01-20T11:39:16.988Z,84
2019-01-20T11:40:17.657Z,90
2019-01-20T11:41:18.326Z,90
2019-01-20T11:42:19.049Z,90
2019-01-20T11:43:19.718Z,90
2019-01-20T11:44:20.390Z,90
2019-01-20T11:45:21.060Z,90
2019-01-20T11:46:21.780Z,90
2019-01-20T11:47:22.450Z,90
2019-01-20T11:48:23.172Z,90
2019-01-20T11:49:23.842Z,90
2019-01-20T11:50:24.512Z,90
2019-01-20T11:51:25.181Z,90
2019-01-20T11:52:25.874Z,90
2019-01-20T11:53:26.574Z,90
2019-01-20T11:54:27.246Z,90
2019-01-20T11:55:27.915Z,90
2019-01-20T11:56:28.585Z,90
2019-01-20T11:57:29.256Z,90
2019-01-20T11:58:29.927Z,90
2019-01-20T11:59:30.596Z,90
2019-01-20T12:00:31.266Z,90
2019-01-20T12:01:31.938Z,90
2019-01-20T12:02:32.608Z,90
2019-01-20T12:03:33.278Z,90
2019-01-20T12:04:33.949Z,90
2019-01-20T12:05:34.619Z,90
2019-01-20T12:06:35.289Z,90
2019-01-20T12:07:35.959Z,90
2019-01-20T12:08:36.630Z,90
2019-01-20T12:09:37.303Z,90
2019-01-20T12:10:37.969Z,90
2019-01-20T12:11:38.642Z,90
2019-01-20T12:12:39.312Z,90
2019-01-20T12:13:39.982Z,90
2019-01-20T12:14:40.652Z,90
2019-01-20T12:15:41.322Z,90
2019-01-20T12:16:41.994Z,95
2019-01-20T12:17:42.663Z,95
2019-01-20T12:18:43.338Z,95
2019-01-20T12:19:44.003Z,95
2019-01-20T12:20:44.673Z,95
2019-01-20T12:21:45.342Z,95
2019-01-20T12:22:46.013Z,95
2019-01-20T12:23:46.686Z,95
2019-01-20T12:24:47.402Z,95
2019-01-20T12:25:48.075Z,95
2019-01-20T12:26:48.744Z,95
2019-01-20T12:27:49.415Z,95
2019-01-20T12:28:50.085Z,95
2019-01-20T12:29:52.022Z,95
2019-01-20T12:30:52.417Z,95
2019-01-20T12:31:53.092Z,112
2019-01-20T12:32:53.763Z,140
2019-01-20T12:33:54.436Z,163
2019-01-20T12:34:55.107Z,146
2019-01-20T12:35:55.781Z,151
2019-01-20T12:36:56.453Z,151
2019-01-20T12:37:57.127Z,168
2019-01-20T12:38:57.799Z,146
2019-01-20T12:39:58.520Z,112
2019-01-20T12:40:59.191Z,95
2019-01-20T12:41:59.862Z,151
2019-01-20T12:43:00.536Z,146
2019-01-20T12:44:01.208Z,95
2019-01-20T12:45:01.878Z,95
2019-01-20T12:46:02.550Z,112
2019-01-20T12:47:03.226Z,112
2019-01-20T12:48:03.894Z,106
2019-01-20T12:49:04.566Z,106
2019-01-20T12:50:05.238Z,101
2019-01-20T12:51:05.913Z,95
2019-01-20T12:52:06.632Z,95
2019-01-20T12:53:07.300Z,95
2019-01-20T12:54:07.971Z,95
2019-01-20T12:55:08.642Z,95
2019-01-20T12:56:09.314Z,95
2019-01-20T12:57:10.048Z,90
2019-01-20T12:58:10.757Z,90
2019-01-20T12:59:11.426Z,90
2019-01-20T13:00:12.094Z,90
2019-01-20T13:01:12.782Z,90
2019-01-20T13:02:13.435Z,90
2019-01-20T13:03:14.109Z,90
2019-01-20T13:04:14.829Z,90
2019-01-20T13:05:15.499Z,90
2019-01-20T13:06:16.172Z,90
2019-01-20T13:07:16.840Z,90
2019-01-20T13:08:17.513Z,90
2019-01-20T13:09:18.283Z,90
2019-01-20T13:10:18.954Z,90
2019-01-20T13:11:19.627Z,90
2019-01-20T13:12:20.347Z,90
2019-01-20T13:13:21.018Z,90
2019-01-20T13:14:21.691Z,101
2019-01-20T13:15:22.362Z,118
2019-01-20T13:16:23.036Z,123
2019-01-20T13:17:23.709Z,123
2019-01-20T13:18:24.384Z,112
2019-01-20T13:19:25.054Z,146
2019-01-20T13:20:25.727Z,191
2019-01-20T13:21:26.401Z,196
2019-01-20T13:22:27.073Z,168
2019-01-20T13:23:27.745Z,123
2019-01-20T13:24:28.420Z,101
2019-01-20T13:25:29.092Z,118
2019-01-20T13:26:29.765Z,106
2019-01-20T13:27:30.435Z,90
2019-01-20T13:28:31.108Z,90
2019-01-20T13:29:31.782Z,90
2019-01-20T13:30:32.452Z,90
2019-01-20T13:31:33.126Z,90
2019-01-20T13:32:33.796Z,90
2019-01-20T13:33:34.470Z,90
2019-01-20T13:34:35.189Z,90
2019-01-20T13:35:35.860Z,84
2019-01-20T13:36:37.315Z,84
2019-01-20T13:37:37.968Z,84
2019-01-20T13:38:38.682Z,84
2019-01-20T13:39:39.352Z,84
2019-01-20T13:40:40.024Z,84
2019-01-20T13:41:40.694Z,84
2019-01-20T13:42:41.366Z,84
2019-01-20T13:43:42.041Z,84
2019-01-20T13:44:46.332Z,84
2019-01-20T13:45:44.374Z,84
2019-01-20T13:46:45.044Z,78
2019-01-20T13:47:48.854Z,78
2019-01-20T13:48:47.379Z,78
2019-01-20T13:49:48.101Z,78
2019-01-20T13:50:48.774Z,78
2019-01-20T13:51:49.445Z,78
2019-01-20T13:52:50.117Z,78
2019-01-20T13:53:50.788Z,78
2019-01-20T13:54:51.460Z,78
2019-01-20T13:55:52.183Z,78
2019-01-20T13:56:52.855Z,84
2019-01-20T13:57:53.523Z,84
2019-01-20T13:58:54.195Z,84
2019-01-20T13:59:54.867Z,84
2019-01-20T14:00:55.538Z,84
2019-01-20T14:01:56.210Z,78
2019-01-20T14:02:56.881Z,78
2019-01-20T14:03:57.554Z,78
2019-01-20T14:04:58.225Z,73
2019-01-20T14:05:58.895Z,73
2019-01-20T14:06:59.568Z,73
2019-01-20T14:08:00.239Z,73
2019-01-20T14:09:00.909Z,73
2019-01-20T14:10:01.584Z,67
2019-01-20T14:11:02.306Z,67
2019-01-20T14:12:02.977Z,67
2019-01-20T14:13:03.648Z,67
2019-01-20T14:14:04.318Z,67
2019-01-20T14:15:04.991Z,67
2019-01-20T14:16:05.662Z,67
2019-01-20T14:17:06.332Z,67
2019-01-20T14:18:07.005Z,67
2019-01-20T14:19:07.674Z,61
2019-01-20T14:20:08.345Z,61
2019-01-20T14:21:09.017Z,61
2019-01-20T14:22:09.722Z,61
2019-01-20T14:23:10.409Z,67
2019-01-20T14:24:11.080Z,67
2019-01-20T14:25:11.750Z,61
2019-01-20T14:26:12.421Z,73
2019-01-20T14:27:13.093Z,73
2019-01-20T14:28:13.765Z,61
2019-01-20T14:29:14.484Z,56
2019-01-20T14:30:15.155Z,56
2019-01-20T14:31:15.826Z,56
2019-01-20T14:32:16.499Z,50
2019-01-20T14:33:17.167Z,50
2019-01-20T14:34:17.839Z,50
2019-01-20T14:35:18.563Z,50
2019-01-20T14:36:19.233Z,50
2019-01-20T14:37:19.904Z,50
2019-01-20T14:38:20.575Z,50
2019-01-20T14:39:21.246Z,50
2019-01-20T14:40:21.917Z,50
2019-01-20T14:41:22.588Z,50